• Join FlightAware (Why Join?)
  • Login
  • US Flag 
03:24AM EST


 

Airport Tracker/Info


-or-


 

Live Flight TrackerFlight Track Log ✈ EJA831 ✈ 09-May-2014 ✈ KPGV - KLUK

Flight Track Log - Related Links

Times and Time Zones

All times are in EDT time to prevent confusion due to time zone crossing. See the EJA831 flight status page for this flight to view local times or setup timezone preferences in your user account.

Time Position Orientation Groundspeed Altitude Reporting Facility
EDT Latitude Longitude Course Direction KTS MPH feet Rate Location/Type
11:20AM 35.6072 -77.3242 350° North 330 380 4,300  Level Washington Center
11:21AM 35.6739 -77.3383 350° North 176 203 7,200 3,120 Climbing Washington Center
11:22AM 35.7356 -77.4064 318° Northwest 192 221 10,600 3,180 Climbing Washington Center
11:23AM 35.7969 -77.4819 315° West 250 288 13,700 3,180 Climbing Washington Center
11:24AM 35.8542 -77.5525 315° West 290 334 17,000 2,940 Climbing Washington Center
11:25AM 35.9156 -77.6283 315° West 303 349 19,600 1,440 Climbing Washington Center
11:26AM 35.9828 -77.7147 314° West 323 372 20,000 180 Climbing Washington Center
11:27AM 36.0414 -77.8217 304° West 353 406 20,000 1,320 Level Washington Center
11:28AM 36.0958 -77.9208 304° West 365 420 22,600 2,160 Climbing Washington Center
11:29AM 36.1483 -78.0150 305° West 353 406 24,400 1,980 Climbing Washington Center
11:30AM 36.2006 -78.1119 304° West 347 399 26,700 2,160 Climbing Washington Center
11:31AM 36.2486 -78.2061 302° West 341 392 28,700 1,980 Climbing Washington Center
11:32AM 36.3006 -78.3033 304° West 336 387 30,700 1,620 Climbing Washington Center
11:33AM 36.3525 -78.4031 303° West 336 387 32,000 600 Climbing Washington Center
11:34AM 36.4106 -78.5083 304° West 355 409 32,000  Level Washington Center
11:35AM 36.4722 -78.6269 303° West 384 442 32,000  Level Washington Center
11:36AM 36.5339 -78.7431 303° West 403 464 32,000  Level Washington Center
11:37AM 36.5956 -78.8619 303° West 409 471 32,000 120 Level Washington Center
11:38AM 36.6569 -78.9811 303° West 414 476 32,300 900 Climbing Washington Center
11:39AM 36.7008 -79.1178 292° West 398 458 33,900 840 Climbing Washington Center
11:40AM 36.7306 -79.2461 286° West 393 452 34,000  Climbing Washington Center
11:41AM 36.7619 -79.3772 287° West 388 447 34,000  Level Washington Center
11:42AM 36.7972 -79.5061 289° West 388 447 34,000  Level Washington Center
11:43AM 36.8247 -79.6267 286° West 395 455 34,000  Level Washington Center
11:44AM 36.8575 -79.7608 287° West 400 460 34,000  Level Washington Center
11:46AM 36.9133 -79.9967 287° West 411 473 34,000  Level Atlanta Center
11:47AM 36.9450 -80.1300 287° West 411 473 34,000  Level Atlanta Center
11:48AM 36.9761 -80.2611 287° West 411 473 34,000  Level Atlanta Center
11:49AM 37.0072 -80.3947 286° West 411 473 34,000  Level Atlanta Center
11:50AM 37.0356 -80.5106 287° West 405 466 34,000  Level Atlanta Center
11:51AM 37.0706 -80.6442 288° West 399 459 34,000  Level Atlanta Center
11:53AM 37.1914 -80.8894 302° West 391 450 34,000  Level Indianapolis Center
11:54AM 37.2447 -80.9983 302° West 382 440 34,000  Level Indianapolis Center
11:55AM 37.3078 -81.1247 302° West 372 428 34,000  Level Indianapolis Center
11:56AM 37.3606 -81.2358 301° West 373 429 34,000  Level Indianapolis Center
11:57AM 37.4178 -81.3506 302° West 388 447 34,000 -780 Level Indianapolis Center
11:58AM 37.4753 -81.4667 302° West 396 456 32,500 -1,800 Descending Indianapolis Center
11:59AM 37.5386 -81.5986 301° West 401 461 30,400 -2,580 Descending Indianapolis Center
12:00PM 37.5969 -81.7228 301° West 406 467 27,300 -3,060 Descending Indianapolis Center
12:01PM 37.6656 -81.8664 301° West 412 474 24,100 -1,620 Descending Indianapolis Center
12:02PM 37.7181 -81.9781 301° West 384 442 24,000 -60 Descending Indianapolis Center
12:03PM 37.7711 -82.0867 302° West 371 427 24,000  Level Indianapolis Center
12:04PM 37.8244 -82.2006 301° West 371 427 24,000  Level Indianapolis Center
12:05PM 37.8781 -82.3164 300° West 376 433 24,000  Level Indianapolis Center
12:06PM 37.9344 -82.4350 301° West 385 443 24,000 -1,260 Level Indianapolis Center
12:07PM 37.9989 -82.5733 301° West 390 449 21,500 -1,980 Descending Indianapolis Center
12:08PM 38.0508 -82.6856 300° West 379 436 20,000 -1,260 Descending Indianapolis Center
12:09PM 38.1006 -82.7939 300° West 364 419 19,000 -1,440 Descending Indianapolis Center
12:10PM 38.1508 -82.9039 300° West 362 417 17,100 -1,860 Descending Indianapolis Center
12:11PM 38.2003 -83.0103 301° West 356 410 15,200 -1,800 Descending Indianapolis Center
12:12PM 38.2503 -83.1197 300° West 356 410 13,400 -1,560 Descending Indianapolis Center
12:13PM 38.3081 -83.2461 300° West 356 410 12,100 -780 Descending Indianapolis Center
12:14PM 38.3561 -83.3533 300° West 355 409 11,900 -720 Descending Indianapolis Center
12:15PM 38.4025 -83.4581 300° West 346 398 10,700 -1,020 Descending Indianapolis Center
12:16PM 38.4425 -83.5464 300° West 303 349 9,800 -840 Descending Indianapolis Center
12:17PM 38.4814 -83.6297 301° West 283 326 9,000 -840 Descending Indianapolis Center
12:18PM 38.5194 -83.7150 300° West 278 320 8,100 -900 Descending Indianapolis Center
12:19PM 38.5639 -83.8117 300° West 274 315 7,200 -840 Descending Indianapolis Center
12:20PM 38.5997 -83.8958 299° West 274 315 6,400 -600 Descending Indianapolis Center
12:22PM 38.6558 -83.9675 315° West 275 316 6,000 -240 Descending Indianapolis Center
12:23PM 38.7236 -84.0161 331° Northwest 281 323 6,000 -600 Level Indianapolis Center
12:24PM 38.7969 -84.0483 341° North 281 323 4,800 -1,020 Descending Indianapolis Center
12:25PM 38.8592 -84.0781 340° North 243 280 4,000 -420 Descending Indianapolis Center
12:26PM 38.9161 -84.1067 339° North 227 261 4,000  Level Indianapolis Center
12:27PM 38.9756 -84.1350 340° North 225 259 4,000  Level Indianapolis Center
12:28PM 39.0350 -84.1631 340° North 225 259 4,000 -540 Level Indianapolis Center
12:29PM 39.1072 -84.1997 338° Northwest 227 261 3,000 -540 Descending Indianapolis Center
12:30PM 39.1517 -84.2344 329° Northwest 205 236 3,000  Level Indianapolis Center
12:31PM 39.1931 -84.2764 322° Northwest 196 226 3,000 -60 Level Indianapolis Center
12:32PM 39.2139 -84.3367 294° West 182 209 2,900 -540 Descending Indianapolis Center
12:33PM 39.1667 -84.3833 217° Southwest 107 123 1,700 -660 Descending Cincinnati TRACON
12:34PM 39.1500 -84.3833 180° South 104 120 1,200 -540 Descending Cincinnati TRACON